createdAt,value
2023-04-15T00:01:19.259Z,6.60
2023-04-15T00:03:48.465Z,6.50
2023-04-15T00:06:17.076Z,6.50
2023-04-15T00:08:45.246Z,6.40
2023-04-15T00:11:15.059Z,6.40
2023-04-15T00:13:43.420Z,6.40
2023-04-15T00:16:12.332Z,6.40
2023-04-15T00:18:40.470Z,7.30
2023-04-15T00:21:08.967Z,6.40
2023-04-15T00:23:37.581Z,6.40
2023-04-15T00:26:05.825Z,6.40
2023-04-15T00:28:35.341Z,6.40
2023-04-15T00:31:05.190Z,6.30
2023-04-15T00:33:33.407Z,6.00
2023-04-15T00:36:01.679Z,6.40
2023-04-15T00:38:29.790Z,6.20
2023-04-15T00:40:58.449Z,6.30
2023-04-15T00:43:26.667Z,6.10
2023-04-15T00:46:00.370Z,6.20
2023-04-15T00:48:29.462Z,6.50
2023-04-15T00:50:57.731Z,6.10
2023-04-15T00:53:25.935Z,6.00
2023-04-15T00:55:55.065Z,5.90
2023-04-15T00:58:23.543Z,5.90
2023-04-15T01:00:54.225Z,5.90
2023-04-15T01:03:23.962Z,5.80
2023-04-15T01:05:53.122Z,5.90
2023-04-15T01:08:21.179Z,5.70
2023-04-15T01:10:49.793Z,5.70
2023-04-15T01:13:17.789Z,6.00
2023-04-15T01:15:46.364Z,5.80
2023-04-15T01:18:15.682Z,5.80
2023-04-15T01:20:45.168Z,5.80
2023-04-15T01:23:13.617Z,5.80
2023-04-15T01:25:45.017Z,5.80
2023-04-15T01:28:14.265Z,5.70
2023-04-15T01:30:42.972Z,5.80
2023-04-15T01:33:11.243Z,6.00
2023-04-15T01:35:39.824Z,6.10
2023-04-15T01:38:11.353Z,5.70
2023-04-15T01:40:40.859Z,5.60
2023-04-15T01:43:10.285Z,6.00
2023-04-15T01:45:38.570Z,5.60
2023-04-15T01:48:07.127Z,5.50
2023-04-15T01:50:39.584Z,5.40
2023-04-15T01:53:07.633Z,5.40
2023-04-15T01:55:35.734Z,6.40
2023-04-15T01:58:04.117Z,5.40
2023-04-15T02:00:33.512Z,5.30
2023-04-15T02:03:01.768Z,6.00
2023-04-15T02:05:29.871Z,5.30
2023-04-15T02:07:58.653Z,5.20
2023-04-15T02:10:27.302Z,5.50
2023-04-15T02:12:55.380Z,5.10
2023-04-15T02:15:23.507Z,5.00
2023-04-15T02:17:55.256Z,6.00
2023-04-15T02:20:23.524Z,5.00
2023-04-15T02:22:52.340Z,4.90
2023-04-15T02:25:21.004Z,4.90
2023-04-15T02:27:49.115Z,4.90
2023-04-15T02:30:18.321Z,4.80
2023-04-15T02:32:47.329Z,4.70
2023-04-15T02:35:19.228Z,4.70
2023-04-15T02:37:47.589Z,3.90
2023-04-15T02:40:17.415Z,4.50
2023-04-15T02:42:46.958Z,4.40
2023-04-15T02:45:18.141Z,4.80
2023-04-15T02:47:47.599Z,4.40
2023-04-15T02:50:20.320Z,4.40
2023-04-15T02:52:48.512Z,4.40
2023-04-15T02:55:18.105Z,4.50
2023-04-15T02:57:46.244Z,4.60
2023-04-15T03:00:16.248Z,4.50
2023-04-15T03:02:48.053Z,4.50
2023-04-15T03:05:16.372Z,4.40
2023-04-15T03:07:53.729Z,5.00
2023-04-15T03:10:24.946Z,4.30
2023-04-15T03:12:53.124Z,4.30
2023-04-15T03:15:25.624Z,4.20
2023-04-15T03:17:55.512Z,4.20
2023-04-15T03:20:26.621Z,4.30
2023-04-15T03:22:56.841Z,4.30
2023-04-15T03:25:26.376Z,4.30
2023-04-15T03:27:54.692Z,4.50
2023-04-15T03:30:23.293Z,4.50
2023-04-15T03:32:52.379Z,4.40
2023-04-15T03:38:25.888Z,4.40
2023-04-15T03:40:54.004Z,4.40
2023-04-15T03:43:22.044Z,4.40
2023-04-15T03:45:50.472Z,4.50
2023-04-15T03:48:21.322Z,4.40
2023-04-15T03:50:49.645Z,4.40
2023-04-15T03:53:17.726Z,4.40
2023-04-15T03:55:47.749Z,4.30
2023-04-15T03:58:19.001Z,4.30
2023-04-15T04:00:47.262Z,4.20
2023-04-15T04:03:15.845Z,4.00
2023-04-15T04:05:44.567Z,4.50
2023-04-15T04:08:14.028Z,4.60
2023-04-15T04:10:42.940Z,4.30
2023-04-15T04:13:12.563Z,3.80
2023-04-15T04:15:40.809Z,3.80
2023-04-15T04:18:08.954Z,3.80
2023-04-15T04:20:37.165Z,4.00
2023-04-15T04:23:05.230Z,3.80
2023-04-15T04:25:33.262Z,4.20
2023-04-15T04:28:01.323Z,3.80
2023-04-15T04:30:31.112Z,2.80
2023-04-15T04:32:59.276Z,4.00
2023-04-15T04:35:27.455Z,4.20
2023-04-15T04:37:57.253Z,3.80
2023-04-15T04:40:25.303Z,3.80
2023-04-15T04:42:53.389Z,3.80
2023-04-15T04:45:21.850Z,3.90
2023-04-15T04:47:51.379Z,3.90
2023-04-15T04:50:19.544Z,3.90
2023-04-15T04:52:47.731Z,4.00
2023-04-15T04:55:15.998Z,4.00
2023-04-15T04:57:44.192Z,4.10
2023-04-15T05:00:13.178Z,4.00
2023-04-15T05:02:42.380Z,4.00
2023-04-15T05:05:13.278Z,4.10
2023-04-15T05:07:41.423Z,4.10
2023-04-15T05:10:10.747Z,4.10
2023-04-15T05:12:38.964Z,4.10
2023-04-15T05:15:08.344Z,4.10
2023-04-15T05:17:36.463Z,4.20
2023-04-15T05:20:05.238Z,4.20
2023-04-15T05:22:34.755Z,4.30
2023-04-15T05:25:02.879Z,4.30
2023-04-15T05:27:31.224Z,4.60
2023-04-15T05:29:59.334Z,4.40
2023-04-15T05:32:27.530Z,4.80
2023-04-15T05:34:55.718Z,4.60
2023-04-15T05:37:23.896Z,4.70
2023-04-15T05:39:53.306Z,5.10
2023-04-15T05:42:21.563Z,6.10
2023-04-15T05:44:49.826Z,5.40
2023-04-15T05:47:18.089Z,5.10
2023-04-15T05:49:46.441Z,5.40
2023-04-15T05:52:14.525Z,5.60
2023-04-15T05:54:42.784Z,6.10
2023-04-15T05:57:12.264Z,5.50
2023-04-15T05:59:42.166Z,5.60
2023-04-15T06:02:11.539Z,5.70
2023-04-15T06:04:39.900Z,5.90
2023-04-15T06:07:07.934Z,5.90
2023-04-15T06:09:36.382Z,6.40
2023-04-15T06:12:04.715Z,6.40
2023-04-15T06:14:34.288Z,6.20
2023-04-15T06:17:02.495Z,6.60
2023-04-15T06:19:30.596Z,6.40
2023-04-15T06:21:59.312Z,6.90
2023-04-15T06:24:27.592Z,6.60
2023-04-15T06:26:55.989Z,6.70
2023-04-15T06:29:24.077Z,6.70
2023-04-15T06:31:53.604Z,6.70
2023-04-15T06:34:21.754Z,6.70
2023-04-15T06:36:49.943Z,6.70
2023-04-15T06:39:18.055Z,6.80
2023-04-15T06:41:46.208Z,6.60
2023-04-15T06:44:14.280Z,6.60
2023-04-15T06:46:42.489Z,6.60
2023-04-15T06:49:12.883Z,6.80
2023-04-15T06:51:41.055Z,6.60
2023-04-15T06:54:09.213Z,6.60
2023-04-15T06:56:37.719Z,6.60
2023-04-15T06:59:05.782Z,6.70
2023-04-15T07:01:33.995Z,6.70
2023-04-15T07:04:02.616Z,6.80
2023-04-15T07:06:32.771Z,6.90
2023-04-15T07:09:01.710Z,7.00
2023-04-15T07:11:30.238Z,7.10
2023-04-15T07:13:59.094Z,7.30
2023-04-15T07:16:28.734Z,7.60
2023-04-15T07:18:58.241Z,7.80
2023-04-15T07:21:27.830Z,8.20
2023-04-15T07:23:59.559Z,8.40
2023-04-15T07:26:27.729Z,8.80
2023-04-15T07:28:55.794Z,8.90
2023-04-15T07:31:23.887Z,9.10
2023-04-15T07:33:52.136Z,9.30
2023-04-15T07:36:21.843Z,9.60
2023-04-15T07:38:49.920Z,9.50
2023-04-15T07:41:20.484Z,9.60
2023-04-15T07:43:48.787Z,9.60
2023-04-15T07:46:17.460Z,9.80
2023-04-15T07:48:45.745Z,9.80
2023-04-15T07:51:14.043Z,9.90
2023-04-15T07:53:42.368Z,10.50
2023-04-15T07:56:10.486Z,10.10
2023-04-15T07:58:40.018Z,10.20
2023-04-15T08:01:08.574Z,10.30
2023-04-15T08:03:37.186Z,10.40
2023-04-15T08:06:08.213Z,10.50
2023-04-15T08:08:38.562Z,10.50
2023-04-15T08:11:07.010Z,10.60
2023-04-15T08:13:35.361Z,10.80
2023-04-15T08:16:19.801Z,10.90
2023-04-15T08:18:48.589Z,11.00
2023-04-15T08:21:17.642Z,11.10
2023-04-15T08:23:46.609Z,11.20
2023-04-15T08:26:15.265Z,11.30
2023-04-15T08:28:44.078Z,11.30
2023-04-15T08:31:12.839Z,11.50
2023-04-15T08:33:42.513Z,11.60
2023-04-15T08:36:10.716Z,11.60
2023-04-15T08:38:38.890Z,11.70
2023-04-15T08:41:13.617Z,11.80
2023-04-15T08:43:49.133Z,12.00
2023-04-15T08:46:17.979Z,12.00
2023-04-15T08:48:49.712Z,12.10
2023-04-15T08:51:18.702Z,12.20
2023-04-15T08:53:47.815Z,12.30
2023-04-15T08:56:17.371Z,12.40
2023-04-15T08:58:46.259Z,12.40
2023-04-15T09:01:15.314Z,12.40
2023-04-15T09:03:44.311Z,12.50
2023-04-15T09:06:15.956Z,12.80
2023-04-15T09:08:45.313Z,12.70
2023-04-15T09:11:13.645Z,12.80
2023-04-15T09:13:41.891Z,12.90
2023-04-15T09:16:10.348Z,12.90
2023-04-15T09:18:39.823Z,12.90
2023-04-15T09:21:09.401Z,12.90
2023-04-15T09:23:39.937Z,12.90
2023-04-15T09:26:08.978Z,12.90
2023-04-15T09:28:43.473Z,13.20
2023-04-15T09:31:12.076Z,13.00
2023-04-15T09:33:57.578Z,13.00
2023-04-15T09:36:29.622Z,13.20
2023-04-15T09:39:00.580Z,13.20
2023-04-15T09:41:29.632Z,13.30
2023-04-15T09:43:57.849Z,13.60
2023-04-15T09:46:44.175Z,13.70
2023-04-15T09:49:13.548Z,13.70
2023-04-15T09:51:51.323Z,14.00
2023-04-15T09:54:39.180Z,13.70
2023-04-15T09:57:16.627Z,13.80
2023-04-15T09:59:45.104Z,13.90
2023-04-15T10:02:14.902Z,14.00
2023-04-15T10:04:46.332Z,14.10
2023-04-15T10:07:20.640Z,14.30
2023-04-15T10:09:51.168Z,14.50
2023-04-15T10:12:19.942Z,14.60
2023-04-15T10:14:53.840Z,14.70
2023-04-15T10:17:26.176Z,14.90
2023-04-15T10:19:55.996Z,15.00
2023-04-15T10:22:25.673Z,15.10
2023-04-15T10:24:56.289Z,15.30
2023-04-15T10:27:25.118Z,15.40
2023-04-15T10:29:53.382Z,15.50
2023-04-15T10:32:22.842Z,15.60
2023-04-15T10:34:54.477Z,15.50
2023-04-15T10:37:23.826Z,15.60
2023-04-15T10:39:54.510Z,15.70
2023-04-15T10:42:24.637Z,15.50
2023-04-15T10:44:57.763Z,15.20
2023-04-15T10:47:26.180Z,15.00
2023-04-15T10:49:59.168Z,14.90
2023-04-15T10:52:30.747Z,14.80
2023-04-15T10:55:13.669Z,14.80
2023-04-15T10:57:46.502Z,15.00
2023-04-15T11:00:17.013Z,15.10
2023-04-15T11:02:47.646Z,15.20
2023-04-15T11:05:17.061Z,15.40
2023-04-15T11:07:53.817Z,15.60
2023-04-15T11:10:58.985Z,15.70
2023-04-15T11:13:30.658Z,15.90
2023-04-15T11:16:02.224Z,16.00
2023-04-15T11:18:32.819Z,16.10
2023-04-15T11:21:03.429Z,16.10
2023-04-15T11:23:37.531Z,16.20
2023-04-15T11:26:09.574Z,16.30
2023-04-15T11:28:42.779Z,16.30
2023-04-15T11:31:13.473Z,16.60
2023-04-15T11:33:55.486Z,16.30
2023-04-15T11:36:28.345Z,16.30
2023-04-15T11:38:58.852Z,16.20
2023-04-15T11:41:26.978Z,16.10
2023-04-15T11:43:56.536Z,16.10
2023-04-15T11:46:31.979Z,16.20
2023-04-15T11:49:00.312Z,16.10
2023-04-15T11:51:34.172Z,16.00
2023-04-15T11:54:02.737Z,15.80
2023-04-15T11:56:31.967Z,15.70
2023-04-15T11:59:01.368Z,15.90
2023-04-15T12:01:33.550Z,15.90
2023-04-15T12:04:02.851Z,16.00
2023-04-15T12:06:35.024Z,16.10
2023-04-15T12:09:10.818Z,16.00
2023-04-15T12:11:44.116Z,15.80
2023-04-15T12:14:19.959Z,15.80
2023-04-15T12:16:51.739Z,15.80
2023-04-15T12:19:25.900Z,15.80
2023-04-15T12:22:00.521Z,15.70
2023-04-15T12:24:29.634Z,15.60
2023-04-15T12:26:59.080Z,15.60
2023-04-15T12:29:32.270Z,15.80
2023-04-15T12:32:07.029Z,16.00
2023-04-15T12:34:36.857Z,16.00
2023-04-15T12:37:06.752Z,15.90
2023-04-15T12:39:38.647Z,16.00
2023-04-15T12:42:07.760Z,16.10
2023-04-15T12:44:38.197Z,16.10
2023-04-15T12:47:06.809Z,16.20
2023-04-15T12:49:35.113Z,16.30
2023-04-15T12:52:04.400Z,16.30
2023-04-15T12:54:36.187Z,16.40
2023-04-15T12:57:06.893Z,16.50
2023-04-15T12:59:37.642Z,16.50
2023-04-15T13:02:05.973Z,16.40
2023-04-15T13:04:34.298Z,16.20
2023-04-15T13:07:03.001Z,16.10
2023-04-15T13:09:31.214Z,16.00
2023-04-15T13:11:59.262Z,15.90
2023-04-15T13:14:27.458Z,15.80
2023-04-15T13:16:56.974Z,15.80
2023-04-15T13:19:24.990Z,15.80
2023-04-15T13:21:53.033Z,15.80
2023-04-15T13:24:21.206Z,15.60
2023-04-15T13:26:50.495Z,15.50
2023-04-15T13:29:18.724Z,15.50
2023-04-15T13:31:47.009Z,15.50
2023-04-15T13:34:16.443Z,15.60
2023-04-15T13:36:44.431Z,15.60
2023-04-15T13:39:12.470Z,15.70
2023-04-15T13:41:41.578Z,15.70
2023-04-15T13:44:09.832Z,15.70
2023-04-15T13:46:39.520Z,15.80
2023-04-15T13:49:07.621Z,15.80
2023-04-15T13:51:37.396Z,15.80
2023-04-15T13:54:05.860Z,16.00
2023-04-15T13:56:37.155Z,16.10
2023-04-15T13:59:06.992Z,16.20
2023-04-15T14:01:35.635Z,16.20
2023-04-15T14:04:04.399Z,16.20
2023-04-15T14:06:32.809Z,16.00
2023-04-15T14:09:02.562Z,15.80
2023-04-15T14:11:30.994Z,15.60
2023-04-15T14:13:59.102Z,15.40
2023-04-15T14:16:27.254Z,15.40
2023-04-15T14:18:55.677Z,15.40
2023-04-15T14:21:23.679Z,15.40
2023-04-15T14:23:51.614Z,15.50
2023-04-15T14:26:21.167Z,15.70
2023-04-15T14:28:49.313Z,15.80
2023-04-15T14:31:18.977Z,15.90
2023-04-15T14:33:47.308Z,16.00
2023-04-15T14:36:15.489Z,16.00
2023-04-15T14:38:43.594Z,16.00
2023-04-15T14:41:12.166Z,16.00
2023-04-15T14:43:41.846Z,16.00
2023-04-15T14:46:09.947Z,16.00
2023-04-15T14:48:38.508Z,16.10
2023-04-15T14:51:07.357Z,16.10
2023-04-15T14:53:35.740Z,16.00
2023-04-15T14:56:05.973Z,16.00
2023-04-15T14:58:33.996Z,15.80
2023-04-15T15:01:04.357Z,15.60
2023-04-15T15:03:32.592Z,15.50
2023-04-15T15:06:00.814Z,15.60
2023-04-15T15:08:28.797Z,15.60
2023-04-15T15:10:57.198Z,15.60
2023-04-15T15:13:26.839Z,15.60
2023-04-15T15:15:56.595Z,15.70
2023-04-15T15:18:26.480Z,15.70
2023-04-15T15:20:56.845Z,15.70
2023-04-15T15:23:24.954Z,15.70
2023-04-15T15:25:52.983Z,15.60
2023-04-15T15:28:21.765Z,15.60
2023-04-15T15:30:49.830Z,15.60
2023-04-15T15:33:20.913Z,15.50
2023-04-15T15:35:51.468Z,15.40
2023-04-15T15:38:21.775Z,15.40
2023-04-15T15:40:49.998Z,15.30
2023-04-15T15:43:19.787Z,15.20
2023-04-15T15:45:48.074Z,15.10
2023-04-15T15:48:16.121Z,15.00
2023-04-15T15:50:44.933Z,15.00
2023-04-15T15:53:18.295Z,15.00
2023-04-15T15:55:49.021Z,14.90
2023-04-15T15:58:17.066Z,14.90
2023-04-15T16:00:45.153Z,14.80
2023-04-15T16:03:13.274Z,14.80
2023-04-15T16:05:41.425Z,14.70
2023-04-15T16:08:09.537Z,14.60
2023-04-15T16:10:39.377Z,14.50
2023-04-15T16:13:07.580Z,14.40
2023-04-15T16:15:35.735Z,14.30
2023-04-15T16:18:03.798Z,14.20
2023-04-15T16:20:31.876Z,14.10
2023-04-15T16:23:00.541Z,14.00
2023-04-15T16:25:28.539Z,13.90
2023-04-15T16:28:06.016Z,13.80
2023-04-15T16:30:41.282Z,13.80
2023-04-15T16:33:10.830Z,13.80
2023-04-15T16:35:39.509Z,13.80
2023-04-15T16:38:07.633Z,13.70
2023-04-15T16:40:39.502Z,13.60
2023-04-15T16:43:11.203Z,13.50
2023-04-15T16:45:39.777Z,13.40
2023-04-15T16:48:08.291Z,13.30
2023-04-15T16:50:37.589Z,13.20
2023-04-15T16:53:06.920Z,13.10
2023-04-15T16:55:35.128Z,13.10
2023-04-15T16:58:04.318Z,13.00
2023-04-15T17:00:36.785Z,13.10
2023-04-15T17:03:07.269Z,13.00
2023-04-15T17:05:35.942Z,12.90
2023-04-15T17:08:04.083Z,12.90
2023-04-15T17:10:32.421Z,12.90
2023-04-15T17:13:00.989Z,12.80
2023-04-15T17:15:29.025Z,12.70
2023-04-15T17:17:58.481Z,12.70
2023-04-15T17:20:27.361Z,12.70
2023-04-15T17:22:55.834Z,12.60
2023-04-15T17:25:24.635Z,12.50
2023-04-15T17:27:53.005Z,12.50
2023-04-15T17:30:21.367Z,12.40
2023-04-15T17:32:49.497Z,12.50
2023-04-15T17:35:19.207Z,12.40
2023-04-15T17:37:47.409Z,12.30
2023-04-15T17:40:16.014Z,12.30
2023-04-15T17:42:44.433Z,12.20
2023-04-15T17:45:13.292Z,12.20
2023-04-15T17:47:41.614Z,12.10
2023-04-15T17:50:10.472Z,12.00
2023-04-15T17:52:39.906Z,12.00
2023-04-15T17:55:09.027Z,11.90
2023-04-15T17:57:37.171Z,11.90
2023-04-15T18:00:08.955Z,11.80
2023-04-15T18:02:41.373Z,11.80
2023-04-15T18:05:10.417Z,11.60
2023-04-15T18:07:39.975Z,11.60
2023-04-15T18:10:11.655Z,11.60
2023-04-15T18:12:39.765Z,11.50
2023-04-15T18:15:09.451Z,11.50
2023-04-15T18:17:38.911Z,11.40
2023-04-15T18:20:08.404Z,11.40
2023-04-15T18:22:36.602Z,11.30
2023-04-15T18:25:12.224Z,11.30
2023-04-15T18:27:40.771Z,11.30
2023-04-15T18:30:10.045Z,11.30
2023-04-15T18:32:38.790Z,11.10
2023-04-15T18:35:08.191Z,11.10
2023-04-15T18:37:36.406Z,11.00
2023-04-15T18:40:07.862Z,11.00
2023-04-15T18:42:37.300Z,10.90
2023-04-15T18:45:05.911Z,10.80
2023-04-15T18:47:35.507Z,10.80
2023-04-15T18:50:03.662Z,10.70
2023-04-15T18:52:31.763Z,10.70
2023-04-15T18:55:03.563Z,10.70
2023-04-15T18:57:35.397Z,10.60
2023-04-15T19:00:06.925Z,10.60
2023-04-15T19:02:35.021Z,10.60
2023-04-15T19:05:04.454Z,10.60
2023-04-15T19:07:32.928Z,10.60
2023-04-15T19:10:03.139Z,10.60
2023-04-15T19:12:31.223Z,10.70
2023-04-15T19:14:59.216Z,10.70
2023-04-15T19:17:28.740Z,10.70
2023-04-15T19:19:56.911Z,10.60
2023-04-15T19:22:25.447Z,10.60
2023-04-15T19:24:53.761Z,10.60
2023-04-15T19:27:21.957Z,10.70
2023-04-15T19:29:49.981Z,10.60
2023-04-15T19:32:19.653Z,10.60
2023-04-15T19:34:49.794Z,10.60
2023-04-15T19:37:18.323Z,10.60
2023-04-15T19:39:46.397Z,10.60
2023-04-15T19:42:16.365Z,10.50
2023-04-15T19:44:46.092Z,10.50
2023-04-15T19:47:14.240Z,10.40
2023-04-15T19:49:42.449Z,10.30
2023-04-15T19:52:11.954Z,10.30
2023-04-15T19:54:39.877Z,10.30
2023-04-15T19:57:07.988Z,10.30
2023-04-15T19:59:37.306Z,10.40
2023-04-15T20:02:05.393Z,10.20
2023-04-15T20:04:33.861Z,10.30
2023-04-15T20:07:01.995Z,10.30
2023-04-15T20:09:31.594Z,10.30
2023-04-15T20:12:06.171Z,10.30
2023-04-15T20:14:48.101Z,10.30
2023-04-15T20:17:16.220Z,10.30
2023-04-15T20:19:44.349Z,10.30
2023-04-15T20:22:12.338Z,10.20
2023-04-15T20:24:41.796Z,10.30
2023-04-15T20:27:09.818Z,10.20
2023-04-15T20:29:37.747Z,10.20
2023-04-15T20:32:06.746Z,10.20
2023-04-15T20:34:35.080Z,10.20
2023-04-15T20:37:03.285Z,10.20
2023-04-15T20:39:31.253Z,10.20
2023-04-15T20:42:02.796Z,10.20
2023-04-15T20:44:30.963Z,10.20
2023-04-15T20:46:59.036Z,10.20
2023-04-15T20:49:27.121Z,10.10
2023-04-15T20:51:55.097Z,10.10
2023-04-15T20:54:23.117Z,10.20
2023-04-15T20:56:51.356Z,10.20
2023-04-15T20:59:21.020Z,10.10
2023-04-15T21:01:50.773Z,10.10
2023-04-15T21:04:18.969Z,10.20
2023-04-15T21:06:47.638Z,10.10
2023-04-15T21:09:15.775Z,10.10
2023-04-15T21:12:00.346Z,10.10
2023-04-15T21:14:31.184Z,10.10
2023-04-15T21:16:59.202Z,10.10
2023-04-15T21:19:27.243Z,10.10
2023-04-15T21:21:55.253Z,10.00
2023-04-15T21:24:24.943Z,10.00
2023-04-15T21:26:52.980Z,10.00
2023-04-15T21:29:21.050Z,10.00
2023-04-15T21:31:50.486Z,10.00
2023-04-15T21:34:18.618Z,10.00
2023-04-15T21:36:46.692Z,10.10
2023-04-15T21:39:14.687Z,10.10
2023-04-15T21:41:42.736Z,10.10
2023-04-15T21:44:12.573Z,10.10
2023-04-15T21:46:46.116Z,10.10
2023-04-15T21:49:18.632Z,10.10
2023-04-15T21:51:47.982Z,10.10
2023-04-15T21:54:16.363Z,10.10
2023-04-15T21:56:44.352Z,10.10
2023-04-15T21:59:12.305Z,10.10
2023-04-15T22:01:40.520Z,10.10
2023-04-15T22:04:09.689Z,10.10
2023-04-15T22:06:39.610Z,10.00
2023-04-15T22:09:07.530Z,10.10
2023-04-15T22:11:35.533Z,10.00
2023-04-15T22:14:03.464Z,10.00
2023-04-15T22:16:31.451Z,10.00
2023-04-15T22:18:59.386Z,10.00
2023-04-15T22:21:27.898Z,10.00
2023-04-15T22:24:39.390Z,9.90
2023-04-15T22:26:45.428Z,9.90
2023-04-15T22:29:13.626Z,9.90
2023-04-15T22:31:41.812Z,9.80
2023-04-15T22:34:09.850Z,9.80
2023-04-15T22:36:37.921Z,9.80
2023-04-15T22:39:07.542Z,9.80
2023-04-15T22:41:35.708Z,9.80
2023-04-15T22:44:03.674Z,9.80
2023-04-15T22:46:31.744Z,9.80
2023-04-15T22:48:59.898Z,9.80
2023-04-15T22:51:29.071Z,9.80
2023-04-15T22:53:57.206Z,9.70
2023-04-15T22:56:26.880Z,9.80
2023-04-15T22:58:55.009Z,9.70
2023-04-15T23:01:23.150Z,9.70
2023-04-15T23:03:57.664Z,9.70
2023-04-15T23:06:33.705Z,9.70
2023-04-15T23:09:01.661Z,9.70
2023-04-15T23:11:31.043Z,9.60
2023-04-15T23:14:01.135Z,9.60
2023-04-15T23:16:29.182Z,9.70
2023-04-15T23:18:57.159Z,9.70
2023-04-15T23:21:26.111Z,9.70
2023-04-15T23:23:54.277Z,9.70
2023-04-15T23:26:22.275Z,9.70
2023-04-15T23:28:51.623Z,9.70
2023-04-15T23:31:19.632Z,9.70
2023-04-15T23:33:47.780Z,9.70
2023-04-15T23:36:16.114Z,9.70
2023-04-15T23:38:44.192Z,9.60
2023-04-15T23:41:12.252Z,9.60
2023-04-15T23:43:40.435Z,9.60
2023-04-15T23:46:09.841Z,9.60
2023-04-15T23:48:37.899Z,9.60
2023-04-15T23:51:06.658Z,9.60
2023-04-15T23:53:34.916Z,9.60
2023-04-15T23:56:03.231Z,9.60
2023-04-15T23:58:34.007Z,9.50
